createdAt,value
2022-09-15T00:02:46.670Z,99485.06
2022-09-15T00:05:48.611Z,99493.31
2022-09-15T00:08:50.231Z,99483.81
2022-09-15T00:11:51.824Z,99497.56
2022-09-15T00:14:53.835Z,99493.34
2022-09-15T00:17:55.519Z,99486.72
2022-09-15T00:20:57.362Z,99488.00
2022-09-15T00:24:00.356Z,99483.75
2022-09-15T00:27:02.179Z,99481.38
2022-09-15T00:30:05.146Z,99476.97
2022-09-15T00:33:07.339Z,99492.25
2022-09-15T00:36:11.282Z,99481.50
2022-09-15T00:39:13.047Z,99489.28
2022-09-15T00:42:20.163Z,99479.31
2022-09-15T00:45:21.780Z,99486.81
2022-09-15T00:48:23.472Z,99492.44
2022-09-15T00:51:32.629Z,99494.69
2022-09-15T00:54:49.315Z,99490.72
2022-09-15T00:57:59.903Z,99484.63
2022-09-15T01:01:04.709Z,99484.50
2022-09-15T01:04:06.357Z,99479.50
2022-09-15T01:07:11.068Z,99481.72
2022-09-15T01:10:17.690Z,99479.44
2022-09-15T01:13:19.316Z,99475.75
2022-09-15T01:16:39.387Z,99474.44
2022-09-15T01:19:43.923Z,99478.16
2022-09-15T01:23:23.246Z,99482.28
2022-09-15T01:26:40.071Z,99485.63
2022-09-15T01:29:56.860Z,99492.03
2022-09-15T01:33:09.475Z,99488.31
2022-09-15T01:36:25.329Z,99486.66
2022-09-15T01:39:36.589Z,99487.50
2022-09-15T01:42:40.343Z,99481.97
2022-09-15T01:45:45.401Z,99474.44
2022-09-15T01:48:50.044Z,99479.50
2022-09-15T01:51:54.060Z,99482.19
2022-09-15T01:54:59.036Z,99471.69
2022-09-15T01:58:00.608Z,99472.19
2022-09-15T02:01:23.580Z,99480.00
2022-09-15T02:04:38.182Z,99476.28
2022-09-15T02:07:59.178Z,99481.22
2022-09-15T02:11:11.680Z,99481.75
2022-09-15T02:14:20.833Z,99490.22
2022-09-15T02:17:26.770Z,99483.16
2022-09-15T02:20:44.404Z,99494.25
2022-09-15T02:23:53.481Z,99498.66
2022-09-15T02:26:55.430Z,99497.06
2022-09-15T02:30:05.934Z,99486.34
2022-09-15T02:33:14.202Z,99491.19
2022-09-15T02:36:19.884Z,99504.22
2022-09-15T02:39:27.236Z,99496.59
2022-09-15T02:42:31.234Z,99496.19
2022-09-15T02:45:32.989Z,99494.78
2022-09-15T02:48:35.439Z,99494.53
2022-09-15T02:51:37.131Z,99494.16
2022-09-15T02:54:38.729Z,99496.44
2022-09-15T02:57:40.309Z,99485.56
2022-09-15T03:00:42.565Z,99485.00
2022-09-15T03:03:45.578Z,99483.63
2022-09-15T03:06:47.187Z,99480.34
2022-09-15T03:09:48.743Z,99471.66
2022-09-15T03:12:52.994Z,99483.81
2022-09-15T03:15:54.561Z,99482.38
2022-09-15T03:18:59.298Z,99482.94
2022-09-15T03:22:00.881Z,99487.84
2022-09-15T03:25:04.870Z,99483.03
2022-09-15T03:28:06.392Z,99477.81
2022-09-15T03:31:09.299Z,99483.75
2022-09-15T03:34:10.960Z,99479.22
2022-09-15T03:37:12.699Z,99474.66
2022-09-15T03:40:14.414Z,99480.56
2022-09-15T03:43:18.743Z,99477.88
2022-09-15T03:46:20.662Z,99485.50
2022-09-15T03:49:22.440Z,99482.69
2022-09-15T03:52:24.048Z,99490.59
2022-09-15T03:55:25.737Z,99488.91
2022-09-15T03:58:30.646Z,99496.97
2022-09-15T04:01:33.114Z,99487.22
2022-09-15T04:04:34.851Z,99489.34
2022-09-15T04:07:36.752Z,99492.34
2022-09-15T04:10:39.691Z,99496.72
2022-09-15T04:13:42.410Z,99485.69
2022-09-15T04:16:44.142Z,99483.41
2022-09-15T04:19:45.763Z,99488.31
2022-09-15T04:22:47.495Z,99484.03
2022-09-15T04:26:19.055Z,99481.28
2022-09-15T04:29:20.649Z,99480.84
2022-09-15T04:32:22.288Z,99479.38
2022-09-15T04:35:23.909Z,99486.00
2022-09-15T04:38:25.518Z,99478.75
2022-09-15T04:41:28.290Z,99484.00
2022-09-15T04:44:29.973Z,99490.09
2022-09-15T04:47:31.638Z,99488.69
2022-09-15T04:50:33.873Z,99491.38
2022-09-15T04:53:40.686Z,99492.53
2022-09-15T04:56:42.664Z,99492.53
2022-09-15T04:59:44.281Z,99496.94
2022-09-15T05:02:46.544Z,99494.25
2022-09-15T05:05:48.174Z,99498.75
2022-09-15T05:08:51.591Z,99496.75
2022-09-15T05:11:53.302Z,99497.59
2022-09-15T05:14:54.957Z,99502.13
2022-09-15T05:17:56.543Z,99511.16
2022-09-15T05:21:02.221Z,99503.47
2022-09-15T05:24:24.306Z,99512.78
2022-09-15T05:27:25.981Z,99507.22
2022-09-15T05:30:44.515Z,99514.00
2022-09-15T05:33:48.233Z,99511.84
2022-09-15T05:36:49.938Z,99512.72
2022-09-15T05:39:51.695Z,99510.09
2022-09-15T05:42:53.455Z,99508.75
2022-09-15T05:45:55.504Z,99507.78
2022-09-15T05:48:58.789Z,99506.44
2022-09-15T05:52:00.636Z,99511.38
2022-09-15T05:55:02.266Z,99506.38
2022-09-15T05:58:04.374Z,99502.69
2022-09-15T06:01:13.785Z,99506.75
2022-09-15T06:04:15.344Z,99516.53
2022-09-15T06:07:17.038Z,99523.13
2022-09-15T06:10:18.652Z,99515.75
2022-09-15T06:13:20.249Z,99516.78
2022-09-15T06:16:24.067Z,99520.03
2022-09-15T06:19:25.825Z,99527.81
2022-09-15T06:22:27.978Z,99520.56
2022-09-15T06:25:29.607Z,99518.22
2022-09-15T06:28:31.263Z,99524.84
2022-09-15T06:31:34.143Z,99531.00
2022-09-15T06:34:35.803Z,99534.41
2022-09-15T06:37:37.378Z,99533.22
2022-09-15T06:40:39.096Z,99539.00
2022-09-15T06:43:41.303Z,99532.44
2022-09-15T06:46:42.913Z,99536.84
2022-09-15T06:49:44.498Z,99532.97
2022-09-15T06:52:46.103Z,99542.75
2022-09-15T06:55:47.841Z,99544.97
2022-09-15T06:58:50.067Z,99544.81
2022-09-15T07:01:55.861Z,99546.34
2022-09-15T07:04:57.547Z,99557.13
2022-09-15T07:07:59.136Z,99550.41
2022-09-15T07:11:01.690Z,99560.41
2022-09-15T07:14:04.297Z,99557.56
2022-09-15T07:17:05.862Z,99558.03
2022-09-15T07:20:07.766Z,99549.41
2022-09-15T07:23:09.467Z,99554.97
2022-09-15T07:26:18.528Z,99562.41
2022-09-15T07:29:20.161Z,99559.94
2022-09-15T07:32:21.942Z,99563.84
2022-09-15T07:35:23.630Z,99563.34
2022-09-15T07:38:25.282Z,99561.38
2022-09-15T07:41:29.317Z,99563.09
2022-09-15T07:44:31.019Z,99562.28
2022-09-15T07:47:32.786Z,99568.56
2022-09-15T07:50:34.472Z,99568.03
2022-09-15T07:53:36.063Z,99569.56
2022-09-15T07:56:42.333Z,99565.88
2022-09-15T07:59:44.019Z,99567.97
2022-09-15T08:02:45.599Z,99574.22
2022-09-15T08:05:47.246Z,99582.91
2022-09-15T08:08:51.729Z,99585.78
2022-09-15T08:11:54.711Z,99591.03
2022-09-15T08:14:56.388Z,99586.63
2022-09-15T08:17:58.069Z,99591.72
2022-09-15T08:20:59.854Z,99591.53
2022-09-15T08:24:01.589Z,99597.97
2022-09-15T08:27:04.869Z,99600.31
2022-09-15T08:30:07.486Z,99603.84
2022-09-15T08:33:09.100Z,99609.34
2022-09-15T08:36:11.476Z,99615.00
2022-09-15T08:39:13.037Z,99617.03
2022-09-15T08:42:16.981Z,99619.94
2022-09-15T08:45:28.652Z,99613.34
2022-09-15T08:48:39.469Z,99612.69
2022-09-15T08:51:48.688Z,99619.63
2022-09-15T08:54:54.957Z,99614.56
2022-09-15T08:57:56.791Z,99610.13
2022-09-15T09:01:14.913Z,99613.19
2022-09-15T09:04:22.584Z,99613.50
2022-09-15T09:08:01.299Z,99613.69
2022-09-15T09:11:24.543Z,99619.09
2022-09-15T09:14:26.138Z,99610.97
2022-09-15T09:17:58.807Z,99616.41
2022-09-15T09:21:09.574Z,99609.44
2022-09-15T09:24:19.999Z,99615.56
2022-09-15T09:27:28.491Z,99617.06
2022-09-15T09:30:33.301Z,99616.91
2022-09-15T09:33:47.562Z,99614.03
2022-09-15T09:36:57.390Z,99622.00
2022-09-15T09:39:59.025Z,99618.09
2022-09-15T09:43:01.074Z,99617.69
2022-09-15T09:46:02.799Z,99617.84
2022-09-15T09:49:23.965Z,99617.63
2022-09-15T09:52:36.320Z,99619.47
2022-09-15T09:55:41.231Z,99607.44
2022-09-15T09:58:43.356Z,99604.22
2022-09-15T10:02:24.806Z,99601.88
2022-09-15T10:05:26.694Z,99601.25
2022-09-15T10:08:28.650Z,99599.03
2022-09-15T10:11:55.002Z,99588.50
2022-09-15T10:15:05.721Z,99588.81
2022-09-15T10:18:29.310Z,99590.97
2022-09-15T10:21:30.980Z,99580.00
2022-09-15T10:24:38.813Z,99596.06
2022-09-15T10:27:40.430Z,99590.94
2022-09-15T10:31:21.450Z,99589.28
2022-09-15T10:34:31.550Z,99583.34
2022-09-15T10:37:52.189Z,99580.91
2022-09-15T10:41:07.348Z,99584.53
2022-09-15T10:44:30.252Z,99571.84
2022-09-15T10:47:54.406Z,99591.13
2022-09-15T10:51:05.687Z,99584.13
2022-09-15T10:54:28.061Z,99582.09
2022-09-15T10:58:07.283Z,99589.25
2022-09-15T11:01:52.966Z,99591.84
2022-09-15T11:05:21.993Z,99597.81
2022-09-15T11:08:29.570Z,99601.78
2022-09-15T11:11:40.745Z,99592.16
2022-09-15T11:15:10.251Z,99590.97
2022-09-15T11:18:25.289Z,99599.81
2022-09-15T11:21:36.694Z,99601.50
2022-09-15T11:24:48.452Z,99592.03
2022-09-15T11:28:26.605Z,99587.97
2022-09-15T11:31:34.385Z,99593.19
2022-09-15T11:34:42.726Z,99591.78
2022-09-15T11:37:50.707Z,99600.28
2022-09-15T11:41:07.545Z,99591.78
2022-09-15T11:44:16.670Z,99600.34
2022-09-15T11:47:30.761Z,99593.75
2022-09-15T11:50:39.488Z,99589.78
2022-09-15T11:53:50.995Z,99599.28
2022-09-15T11:56:55.295Z,99602.63
2022-09-15T12:00:12.280Z,99609.34
2022-09-15T12:03:19.658Z,99603.13
2022-09-15T12:06:44.816Z,99613.78
2022-09-15T12:09:48.241Z,99618.53
2022-09-15T12:12:53.946Z,99619.06
2022-09-15T12:15:57.492Z,99616.41
2022-09-15T12:19:24.820Z,99628.16
2022-09-15T12:22:50.140Z,99635.47
2022-09-15T12:26:14.711Z,99649.75
2022-09-15T12:29:42.018Z,99644.16
2022-09-15T12:32:44.351Z,99637.53
2022-09-15T12:35:46.002Z,99632.94
2022-09-15T12:38:49.529Z,99639.19
2022-09-15T12:42:06.787Z,99627.44
2022-09-15T12:45:24.376Z,99626.00
2022-09-15T12:48:33.780Z,99618.28
2022-09-15T12:51:36.533Z,99619.91
2022-09-15T12:54:42.674Z,99616.75
2022-09-15T12:57:51.676Z,99622.50
2022-09-15T13:01:19.381Z,99616.06
2022-09-15T13:04:51.683Z,99615.88
2022-09-15T13:07:56.240Z,99618.78
2022-09-15T13:11:02.622Z,99621.81
2022-09-15T13:14:04.296Z,99618.50
2022-09-15T13:17:13.802Z,99625.50
2022-09-15T13:20:23.373Z,99636.63
2022-09-15T13:23:27.195Z,99633.84
2022-09-15T13:26:31.914Z,99643.25
2022-09-15T13:29:40.135Z,99646.84
2022-09-15T13:32:57.153Z,99637.38
2022-09-15T13:36:02.077Z,99634.69
2022-09-15T13:39:25.059Z,99622.66
2022-09-15T13:42:53.488Z,99623.97
2022-09-15T13:46:04.905Z,99626.13
2022-09-15T13:49:40.123Z,99618.63
2022-09-15T13:53:15.069Z,99614.72
2022-09-15T13:56:27.311Z,99618.22
2022-09-15T13:59:32.588Z,99609.72
2022-09-15T14:02:34.479Z,99614.00
2022-09-15T14:05:36.889Z,99610.25
2022-09-15T14:08:40.444Z,99618.06
2022-09-15T14:11:43.503Z,99609.94
2022-09-15T14:14:46.699Z,99615.16
2022-09-15T14:17:48.401Z,99612.44
2022-09-15T14:21:04.287Z,99607.69
2022-09-15T14:24:17.208Z,99605.16
2022-09-15T14:27:27.949Z,99601.56
2022-09-15T14:30:32.060Z,99603.78
2022-09-15T14:33:38.294Z,99603.13
2022-09-15T14:36:40.813Z,99606.34
2022-09-15T14:39:49.859Z,99608.22
2022-09-15T14:42:51.735Z,99592.41
2022-09-15T14:45:57.188Z,99603.22
2022-09-15T14:49:11.757Z,99601.16
2022-09-15T14:52:27.901Z,99597.25
2022-09-15T14:56:01.301Z,99596.94
2022-09-15T14:59:14.909Z,99600.91
2022-09-15T15:02:44.331Z,99599.56
2022-09-15T15:05:58.042Z,99597.00
2022-09-15T15:09:28.830Z,99603.69
2022-09-15T15:12:35.162Z,99600.50
2022-09-15T15:15:38.077Z,99602.16
2022-09-15T15:18:41.541Z,99598.47
2022-09-15T15:21:44.527Z,99598.34
2022-09-15T15:24:49.586Z,99606.16
2022-09-15T15:27:56.014Z,99593.28
2022-09-15T15:31:16.471Z,99609.91
2022-09-15T15:34:27.485Z,99604.34
2022-09-15T15:37:31.803Z,99610.63
2022-09-15T15:40:35.044Z,99608.94
2022-09-15T15:43:36.714Z,99616.91
2022-09-15T15:46:50.595Z,99619.09
2022-09-15T15:50:12.892Z,99616.03
2022-09-15T15:53:15.215Z,99613.00
2022-09-15T15:56:25.589Z,99612.00
2022-09-15T15:59:30.173Z,99611.34
2022-09-15T16:02:31.814Z,99603.84
2022-09-15T16:05:34.550Z,99616.38
2022-09-15T16:08:39.910Z,99612.16
2022-09-15T16:11:43.031Z,99622.13
2022-09-15T16:14:44.838Z,99612.50
2022-09-15T16:17:47.298Z,99624.53
2022-09-15T16:20:51.371Z,99618.44
2022-09-15T16:23:53.369Z,99617.09
2022-09-15T16:26:55.093Z,99628.75
2022-09-15T16:29:56.689Z,99636.03
2022-09-15T16:32:59.142Z,99633.31
2022-09-15T16:36:06.854Z,99628.91
2022-09-15T16:39:08.566Z,99626.88
2022-09-15T16:42:10.740Z,99633.31
2022-09-15T16:45:39.855Z,99627.56
2022-09-15T16:48:44.024Z,99626.38
2022-09-15T16:51:48.186Z,99634.13
2022-09-15T16:54:49.853Z,99622.28
2022-09-15T16:57:51.452Z,99629.03
2022-09-15T17:00:53.713Z,99624.97
2022-09-15T17:03:55.885Z,99629.34
2022-09-15T17:06:57.477Z,99628.66
2022-09-15T17:09:59.051Z,99632.66
2022-09-15T17:13:01.724Z,99634.00
2022-09-15T17:16:03.392Z,99636.03
2022-09-15T17:19:05.003Z,99640.59
2022-09-15T17:22:08.561Z,99667.41
2022-09-15T17:25:29.378Z,99668.22
2022-09-15T17:28:36.476Z,99677.44
2022-09-15T17:31:38.260Z,99673.59
2022-09-15T17:34:39.876Z,99672.97
2022-09-15T17:37:41.438Z,99672.16
2022-09-15T17:40:43.082Z,99670.19
2022-09-15T17:43:44.863Z,99668.09
2022-09-15T17:46:46.533Z,99666.59
2022-09-15T17:49:48.136Z,99671.09
2022-09-15T17:52:50.930Z,99684.63
2022-09-15T17:55:54.677Z,99682.31
2022-09-15T17:58:56.250Z,99680.38
2022-09-15T18:01:57.902Z,99675.59
2022-09-15T18:05:00.113Z,99675.75
2022-09-15T18:08:04.994Z,99680.03
2022-09-15T18:11:07.462Z,99677.66
2022-09-15T18:14:10.536Z,99677.44
2022-09-15T18:17:12.134Z,99678.28
2022-09-15T18:20:19.905Z,99682.34
2022-09-15T18:23:23.993Z,99685.03
2022-09-15T18:26:28.466Z,99680.22
2022-09-15T18:29:29.975Z,99673.84
2022-09-15T18:32:33.042Z,99684.63
2022-09-15T18:35:34.635Z,99689.34
2022-09-15T18:38:36.551Z,99699.41
2022-09-15T18:41:38.990Z,99694.78
2022-09-15T18:44:40.606Z,99696.78
2022-09-15T18:47:42.771Z,99698.53
2022-09-15T18:50:45.152Z,99702.19
2022-09-15T18:53:49.757Z,99699.38
2022-09-15T18:56:53.699Z,99698.66
2022-09-15T18:59:55.324Z,99702.19
2022-09-15T19:02:59.120Z,99698.34
2022-09-15T19:06:05.309Z,99700.22
2022-09-15T19:09:06.904Z,99700.66
2022-09-15T19:12:08.516Z,99701.50
2022-09-15T19:15:12.262Z,99708.59
2022-09-15T19:18:13.819Z,99707.75
2022-09-15T19:21:16.002Z,99715.66
2022-09-15T19:24:17.862Z,99716.66
2022-09-15T19:27:19.725Z,99717.66
2022-09-15T19:30:21.290Z,99719.50
2022-09-15T19:33:23.000Z,99713.13
2022-09-15T19:36:28.498Z,99717.66
2022-09-15T19:39:30.573Z,99714.53
2022-09-15T19:42:32.234Z,99712.72
2022-09-15T19:45:33.814Z,99710.03
2022-09-15T19:48:38.610Z,99717.25
2022-09-15T19:51:43.289Z,99718.25
2022-09-15T19:54:44.939Z,99715.56
2022-09-15T19:57:46.621Z,99722.63
2022-09-15T20:00:53.246Z,99727.03
2022-09-15T20:03:56.089Z,99727.03
2022-09-15T20:06:58.183Z,99721.25
2022-09-15T20:09:59.783Z,99726.94
2022-09-15T20:13:01.619Z,99729.63
2022-09-15T20:16:03.540Z,99724.81
2022-09-15T20:19:05.389Z,99728.19
2022-09-15T20:22:06.953Z,99729.22
2022-09-15T20:25:08.570Z,99734.31
2022-09-15T20:28:10.116Z,99734.44
2022-09-15T20:31:18.231Z,99734.91
2022-09-15T20:34:19.827Z,99731.22
2022-09-15T20:37:23.032Z,99735.88
2022-09-15T20:40:24.640Z,99728.09
2022-09-15T20:43:26.908Z,99732.66
2022-09-15T20:46:31.595Z,99738.03
2022-09-15T20:49:33.202Z,99732.78
2022-09-15T20:52:38.223Z,99735.78
2022-09-15T20:55:40.162Z,99729.84
2022-09-15T20:58:42.053Z,99734.34
2022-09-15T21:01:43.974Z,99728.97
2022-09-15T21:04:45.802Z,99739.47
2022-09-15T21:07:48.453Z,99730.25
2022-09-15T21:10:50.027Z,99730.66
2022-09-15T21:13:51.796Z,99731.66
2022-09-15T21:16:54.093Z,99734.50
2022-09-15T21:19:55.693Z,99745.81
2022-09-15T21:22:57.667Z,99745.38
2022-09-15T21:26:02.268Z,99740.00
2022-09-15T21:29:04.258Z,99750.91
2022-09-15T21:32:06.053Z,99745.69
2022-09-15T21:35:08.813Z,99747.50
2022-09-15T21:38:11.078Z,99745.41
2022-09-15T21:41:16.037Z,99747.09
2022-09-15T21:44:17.660Z,99745.69
2022-09-15T21:47:19.189Z,99749.22
2022-09-15T21:50:20.759Z,99751.78
2022-09-15T21:53:22.557Z,99754.31
2022-09-15T21:56:25.578Z,99755.31
2022-09-15T21:59:27.140Z,99759.84
2022-09-15T22:02:28.743Z,99757.72
2022-09-15T22:05:30.334Z,99752.91
2022-09-15T22:08:33.056Z,99754.16
2022-09-15T22:11:35.716Z,99761.53
2022-09-15T22:14:37.255Z,99758.28
2022-09-15T22:17:38.853Z,99760.13
2022-09-15T22:20:40.559Z,99748.78
2022-09-15T22:23:43.550Z,99768.63
2022-09-15T22:26:45.242Z,99768.34
2022-09-15T22:29:46.794Z,99771.19
2022-09-15T22:32:48.334Z,99767.06
2022-09-15T22:35:49.906Z,99760.84
2022-09-15T22:38:52.365Z,99770.59
2022-09-15T22:41:53.971Z,99766.22
2022-09-15T22:44:55.566Z,99762.69
2022-09-15T22:47:57.059Z,99766.50
2022-09-15T22:50:59.043Z,99764.53
2022-09-15T22:54:02.940Z,99755.75
2022-09-15T22:57:04.703Z,99762.25
2022-09-15T23:00:07.101Z,99764.13
2022-09-15T23:03:10.054Z,99765.66
2022-09-15T23:06:11.601Z,99764.09
2022-09-15T23:09:15.298Z,99764.22
2022-09-15T23:12:16.913Z,99761.84
2022-09-15T23:15:19.116Z,99761.84
2022-09-15T23:18:20.738Z,99756.31
2022-09-15T23:21:22.534Z,99760.69
2022-09-15T23:24:24.096Z,99747.53
2022-09-15T23:27:25.763Z,99757.47
2022-09-15T23:30:27.385Z,99751.50
2022-09-15T23:33:31.486Z,99753.47
2022-09-15T23:36:33.086Z,99752.78
2022-09-15T23:39:34.676Z,99749.66
2022-09-15T23:42:36.263Z,99745.97
2022-09-15T23:45:38.356Z,99754.03
2022-09-15T23:48:40.351Z,99752.34
2022-09-15T23:51:41.893Z,99748.22
2022-09-15T23:54:43.871Z,99743.84
2022-09-15T23:57:45.415Z,99748.78
